sensor_id;sensor_type;location;lat;lon;timestamp;pressure;altitude;pressure_sealevel;temperature;humidity
77879;BME280;67071;51.144;17.050;2023-02-15T13:08:45;101565.86;;;25.16;25.61
77879;BME280;67071;51.144;17.050;2023-02-15T13:12:30;101575.95;;;24.89;25.94
77879;BME280;67071;51.144;17.050;2023-02-15T13:19:16;101566.90;;;25.17;26.59
77879;BME280;67071;51.144;17.050;2023-02-15T13:22:43;101563.20;;;25.19;25.38
77879;BME280;67071;51.144;17.050;2023-02-15T13:26:03;101558.72;;;25.27;24.99
77879;BME280;67071;51.144;17.050;2023-02-15T13:29:41;101557.99;;;25.28;24.72
77879;BME280;67071;51.144;17.050;2023-02-15T13:33:06;101554.62;;;25.33;25.20
77879;BME280;67071;51.144;17.050;2023-02-15T13:36:50;101551.31;;;25.45;24.97
77879;BME280;67071;51.144;17.050;2023-02-15T13:47:39;101538.29;;;25.98;24.42
77879;BME280;67071;51.144;17.050;2023-02-15T14:01:47;101536.45;;;26.25;23.96
77879;BME280;67071;51.144;17.050;2023-02-15T14:05:21;101530.41;;;25.88;23.44
77879;BME280;67071;51.144;17.050;2023-02-15T14:19:37;101520.74;;;25.84;23.76
77879;BME280;67071;51.144;17.050;2023-02-15T14:26:46;101517.93;;;25.60;23.71
77879;BME280;67071;51.144;17.050;2023-02-15T14:30:09;101517.38;;;25.40;23.57
77879;BME280;67071;51.144;17.050;2023-02-15T14:33:41;101518.28;;;25.15;23.85
77879;BME280;67071;51.144;17.050;2023-02-15T14:36:57;101513.69;;;25.09;23.88
77879;BME280;67071;51.144;17.050;2023-02-15T14:44:18;101506.78;;;25.05;24.17
77879;BME280;67071;51.144;17.050;2023-02-15T14:47:41;101510.16;;;24.69;24.32
77879;BME280;67071;51.144;17.050;2023-02-15T14:50:57;101507.36;;;24.38;24.70
77879;BME280;67071;51.144;17.050;2023-02-15T14:57:57;101511.45;;;23.75;25.31
77879;BME280;67071;51.144;17.050;2023-02-15T15:01:26;101506.94;;;23.22;25.93
77879;BME280;67071;51.144;17.050;2023-02-15T15:08:40;101505.23;;;22.72;26.65
77879;BME280;67071;51.144;17.050;2023-02-15T15:12:14;101498.66;;;22.47;27.00
77879;BME280;67071;51.144;17.050;2023-02-15T15:15:38;101502.16;;;22.09;27.46
77879;BME280;67071;51.144;17.050;2023-02-15T15:22:43;101501.62;;;21.22;28.62
77879;BME280;67071;51.144;17.050;2023-02-15T15:26:27;101500.02;;;20.89;29.01
77879;BME280;67071;51.144;17.050;2023-02-15T15:29:42;101504.86;;;20.59;29.47
77879;BME280;67071;51.144;17.050;2023-02-15T15:40:58;101492.88;;;19.02;31.37
77879;BME280;67071;51.144;17.050;2023-02-15T15:51:32;101491.08;;;15.82;35.23
77879;BME280;67071;51.144;17.050;2023-02-15T15:54:54;101482.12;;;14.73;36.78
77879;BME280;67071;51.144;17.050;2023-02-15T15:58:16;101486.53;;;13.74;38.48
77879;BME280;67071;51.144;17.050;2023-02-15T16:01:41;101485.55;;;12.84;40.17
77879;BME280;67071;51.144;17.050;2023-02-15T16:05:08;101483.72;;;12.02;41.98
77879;BME280;67071;51.144;17.050;2023-02-15T16:11:48;101487.45;;;10.74;44.08
77879;BME280;67071;51.144;17.050;2023-02-15T16:18:32;101480.94;;;9.74;46.54
77879;BME280;67071;51.144;17.050;2023-02-15T16:21:58;101472.73;;;9.28;47.39
77879;BME280;67071;51.144;17.050;2023-02-15T16:25:41;101465.42;;;8.88;47.99
77879;BME280;67071;51.144;17.050;2023-02-15T16:29:31;101464.88;;;8.42;49.47
77879;BME280;67071;51.144;17.050;2023-02-15T16:32:46;101456.01;;;8.05;50.43
77879;BME280;67071;51.144;17.050;2023-02-15T16:36:11;101456.18;;;7.74;51.11
77879;BME280;67071;51.144;17.050;2023-02-15T16:39:33;101455.80;;;7.43;51.09
77879;BME280;67071;51.144;17.050;2023-02-15T16:49:43;101449.37;;;6.64;52.54
77879;BME280;67071;51.144;17.050;2023-02-15T16:53:02;101453.66;;;6.41;52.97
77879;BME280;67071;51.144;17.050;2023-02-15T16:56:24;101457.41;;;6.17;53.36
77879;BME280;67071;51.144;17.050;2023-02-15T16:59:48;101456.91;;;5.96;53.56
77879;BME280;67071;51.144;17.050;2023-02-15T17:03:19;101452.32;;;5.74;54.02
77879;BME280;67071;51.144;17.050;2023-02-15T17:06:35;101449.99;;;5.52;54.39
77879;BME280;67071;51.144;17.050;2023-02-15T17:09:55;101446.44;;;5.33;54.73
77879;BME280;67071;51.144;17.050;2023-02-15T17:13:31;101448.12;;;5.14;55.21
77879;BME280;67071;51.144;17.050;2023-02-15T17:16:52;101441.51;;;4.97;55.48
77879;BME280;67071;51.144;17.050;2023-02-15T17:20:36;101444.09;;;4.78;56.38
77879;BME280;67071;51.144;17.050;2023-02-15T17:23:59;101440.18;;;4.61;56.59
77879;BME280;67071;51.144;17.050;2023-02-15T17:27:22;101441.00;;;4.45;56.72
77879;BME280;67071;51.144;17.050;2023-02-15T17:30:38;101440.97;;;4.29;57.35
77879;BME280;67071;51.144;17.050;2023-02-15T17:33:55;101436.41;;;4.23;60.32
77879;BME280;67071;51.144;17.050;2023-02-15T17:40:41;101428.51;;;4.05;58.41
77879;BME280;67071;51.144;17.050;2023-02-15T17:43:56;101425.36;;;3.89;58.69
77879;BME280;67071;51.144;17.050;2023-02-15T17:47:17;101419.34;;;3.73;59.01
77879;BME280;67071;51.144;17.050;2023-02-15T17:50:36;101409.14;;;3.56;59.16
77879;BME280;67071;51.144;17.050;2023-02-15T17:53:56;101413.00;;;3.40;59.97
77879;BME280;67071;51.144;17.050;2023-02-15T17:57:15;101412.82;;;3.25;60.21
77879;BME280;67071;51.144;17.050;2023-02-15T18:01:00;101408.91;;;3.10;60.27
77879;BME280;67071;51.144;17.050;2023-02-15T18:04:28;101405.12;;;2.98;60.60
77879;BME280;67071;51.144;17.050;2023-02-15T18:07:54;101406.99;;;2.87;60.68
77879;BME280;67071;51.144;17.050;2023-02-15T18:11:20;101402.50;;;2.77;60.81
77879;BME280;67071;51.144;17.050;2023-02-15T18:14:40;101404.91;;;2.69;61.06
77879;BME280;67071;51.144;17.050;2023-02-15T18:18:08;101412.59;;;2.64;61.48
77879;BME280;67071;51.144;17.050;2023-02-15T18:21:24;101413.49;;;2.61;62.22
77879;BME280;67071;51.144;17.050;2023-02-15T18:24:39;101408.92;;;2.58;63.46
77879;BME280;67071;51.144;17.050;2023-02-15T18:27:54;101406.87;;;2.57;63.67
77879;BME280;67071;51.144;17.050;2023-02-15T18:31:10;101406.87;;;2.57;63.27
77879;BME280;67071;51.144;17.050;2023-02-15T18:34:34;101396.08;;;2.58;63.00
77879;BME280;67071;51.144;17.050;2023-02-15T18:37:52;101402.06;;;2.60;64.04
77879;BME280;67071;51.144;17.050;2023-02-15T18:41:19;101389.20;;;2.62;65.17
77879;BME280;67071;51.144;17.050;2023-02-15T18:44:41;101400.27;;;2.70;66.30
77879;BME280;67071;51.144;17.050;2023-02-15T18:47:57;101393.13;;;2.74;65.63
77879;BME280;67071;51.144;17.050;2023-02-15T18:51:22;101394.67;;;2.75;65.76
77879;BME280;67071;51.144;17.050;2023-02-15T18:54:58;101392.08;;;2.75;65.98
77879;BME280;67071;51.144;17.050;2023-02-15T18:58:17;101386.08;;;2.69;64.52
77879;BME280;67071;51.144;17.050;2023-02-15T19:01:44;101382.80;;;2.60;64.70
77879;BME280;67071;51.144;17.050;2023-02-15T19:05:05;101382.05;;;2.56;64.55
77879;BME280;67071;51.144;17.050;2023-02-15T19:08:23;101379.29;;;2.46;64.63
77879;BME280;67071;51.144;17.050;2023-02-15T19:11:38;101374.29;;;2.36;64.49
77879;BME280;67071;51.144;17.050;2023-02-15T19:14:56;101374.96;;;2.31;64.84
77879;BME280;67071;51.144;17.050;2023-02-15T19:18:10;101372.94;;;2.26;65.06
77879;BME280;67071;51.144;17.050;2023-02-15T19:21:27;101368.80;;;2.23;66.94
77879;BME280;67071;51.144;17.050;2023-02-15T19:24:45;101364.70;;;2.24;67.91
77879;BME280;67071;51.144;17.050;2023-02-15T19:28:10;101370.47;;;2.24;66.91
77879;BME280;67071;51.144;17.050;2023-02-15T19:31:31;101363.56;;;2.22;66.49
77879;BME280;67071;51.144;17.050;2023-02-15T19:34:45;101360.05;;;2.19;66.16
77879;BME280;67071;51.144;17.050;2023-02-15T19:38:15;101361.61;;;2.13;66.63
77879;BME280;67071;51.144;17.050;2023-02-15T19:41:33;101361.66;;;2.06;65.90
77879;BME280;67071;51.144;17.050;2023-02-15T19:44:49;101363.21;;;1.97;65.92
77879;BME280;67071;51.144;17.050;2023-02-15T19:48:05;101352.55;;;1.90;66.11
77879;BME280;67071;51.144;17.050;2023-02-15T19:51:21;101356.07;;;1.83;66.13
77879;BME280;67071;51.144;17.050;2023-02-15T19:54:57;101352.48;;;1.76;66.49
77879;BME280;67071;51.144;17.050;2023-02-15T19:58:13;101342.89;;;1.71;66.55
77879;BME280;67071;51.144;17.050;2023-02-15T20:01:28;101344.98;;;1.65;66.97
77879;BME280;67071;51.144;17.050;2023-02-15T20:04:42;101346.88;;;1.60;67.93
77879;BME280;67071;51.144;17.050;2023-02-15T20:07:57;101346.44;;;1.57;67.41
77879;BME280;67071;51.144;17.050;2023-02-15T20:11:20;101350.08;;;1.52;67.90
77879;BME280;67071;51.144;17.050;2023-02-15T20:14:33;101345.74;;;1.51;68.06
77879;BME280;67071;51.144;17.050;2023-02-15T20:17:50;101341.34;;;1.51;68.66
77879;BME280;67071;51.144;17.050;2023-02-15T20:21:08;101343.13;;;1.47;68.05
77879;BME280;67071;51.144;17.050;2023-02-15T20:24:28;101342.45;;;1.42;69.28
77879;BME280;67071;51.144;17.050;2023-02-15T20:27:45;101340.90;;;1.40;69.56
77879;BME280;67071;51.144;17.050;2023-02-15T20:30:59;101333.95;;;1.35;69.30
77879;BME280;67071;51.144;17.050;2023-02-15T20:34:14;101330.74;;;1.33;68.83
77879;BME280;67071;51.144;17.050;2023-02-15T20:37:34;101329.96;;;1.28;68.36
77879;BME280;67071;51.144;17.050;2023-02-15T20:40:58;101331.63;;;1.22;68.40
77879;BME280;67071;51.144;17.050;2023-02-15T20:44:26;101333.07;;;1.14;68.47
77879;BME280;67071;51.144;17.050;2023-02-15T20:47:48;101331.91;;;1.05;68.45
77879;BME280;67071;51.144;17.050;2023-02-15T20:51:19;101335.11;;;0.97;68.67
77879;BME280;67071;51.144;17.050;2023-02-15T20:54:37;101328.53;;;0.89;68.69
77879;BME280;67071;51.144;17.050;2023-02-15T20:57:50;101328.34;;;0.83;68.61
77879;BME280;67071;51.144;17.050;2023-02-15T21:01:08;101331.91;;;0.76;68.87
77879;BME280;67071;51.144;17.050;2023-02-15T21:04:31;101325.86;;;0.67;69.04
77879;BME280;67071;51.144;17.050;2023-02-15T21:08:11;101328.28;;;0.58;69.79
77879;BME280;67071;51.144;17.050;2023-02-15T21:11:29;101327.52;;;0.50;69.66
77879;BME280;67071;51.144;17.050;2023-02-15T21:14:45;101333.36;;;0.42;69.55
77879;BME280;67071;51.144;17.050;2023-02-15T21:18:05;101326.70;;;0.34;69.70
77879;BME280;67071;51.144;17.050;2023-02-15T21:21:33;101319.41;;;0.28;69.67
77879;BME280;67071;51.144;17.050;2023-02-15T21:24:52;101314.97;;;0.21;69.98
77879;BME280;67071;51.144;17.050;2023-02-15T21:28:16;101315.27;;;0.15;69.90
77879;BME280;67071;51.144;17.050;2023-02-15T21:31:54;101314.44;;;0.07;70.02
77879;BME280;67071;51.144;17.050;2023-02-15T21:35:14;101312.59;;;0.00;70.13
77879;BME280;67071;51.144;17.050;2023-02-15T21:38:31;101315.30;;;-0.08;70.83
77879;BME280;67071;51.144;17.050;2023-02-15T21:41:53;101309.23;;;-0.17;70.84
77879;BME280;67071;51.144;17.050;2023-02-15T21:45:20;101308.77;;;-0.24;70.61
77879;BME280;67071;51.144;17.050;2023-02-15T21:48:41;101310.64;;;-0.33;70.74
77879;BME280;67071;51.144;17.050;2023-02-15T21:52:02;101307.55;;;-0.40;70.79
77879;BME280;67071;51.144;17.050;2023-02-15T21:55:24;101303.60;;;-0.48;70.79
77879;BME280;67071;51.144;17.050;2023-02-15T21:58:43;101298.33;;;-0.56;70.98
77879;BME280;67071;51.144;17.050;2023-02-15T22:02:00;101294.13;;;-0.62;71.08
77879;BME280;67071;51.144;17.050;2023-02-15T22:05:18;101284.18;;;-0.68;71.24
77879;BME280;67071;51.144;17.050;2023-02-15T22:08:47;101279.23;;;-0.75;71.32
77879;BME280;67071;51.144;17.050;2023-02-15T22:12:14;101290.25;;;-0.82;71.39
77879;BME280;67071;51.144;17.050;2023-02-15T22:15:35;101288.60;;;-0.87;71.72
77879;BME280;67071;51.144;17.050;2023-02-15T22:18:51;101284.47;;;-0.94;71.78
77879;BME280;67071;51.144;17.050;2023-02-15T22:22:09;101286.91;;;-1.00;72.04
77879;BME280;67071;51.144;17.050;2023-02-15T22:25:26;101278.88;;;-1.03;72.15
77879;BME280;67071;51.144;17.050;2023-02-15T22:28:42;101279.81;;;-1.07;72.23
77879;BME280;67071;51.144;17.050;2023-02-15T22:32:18;101280.92;;;-1.13;72.48
77879;BME280;67071;51.144;17.050;2023-02-15T22:35:35;101277.26;;;-1.16;72.50
77879;BME280;67071;51.144;17.050;2023-02-15T22:38:52;101268.81;;;-1.19;72.32
77879;BME280;67071;51.144;17.050;2023-02-15T22:45:35;101265.59;;;-1.26;72.71
77879;BME280;67071;51.144;17.050;2023-02-15T22:48:59;101256.79;;;-1.31;72.56
77879;BME280;67071;51.144;17.050;2023-02-15T22:52:16;101258.06;;;-1.34;72.52
77879;BME280;67071;51.144;17.050;2023-02-15T22:55:35;101249.50;;;-1.37;73.21
77879;BME280;67071;51.144;17.050;2023-02-15T22:59:05;101252.58;;;-1.37;74.28
77879;BME280;67071;51.144;17.050;2023-02-15T23:02:22;101263.38;;;-1.34;73.63
77879;BME280;67071;51.144;17.050;2023-02-15T23:05:44;101265.13;;;-1.34;73.42
77879;BME280;67071;51.144;17.050;2023-02-15T23:09:01;101263.55;;;-1.36;73.46
77879;BME280;67071;51.144;17.050;2023-02-15T23:12:48;101265.22;;;-1.39;73.67
77879;BME280;67071;51.144;17.050;2023-02-15T23:16:14;101271.55;;;-1.40;73.45
77879;BME280;67071;51.144;17.050;2023-02-15T23:19:36;101261.59;;;-1.42;73.53
77879;BME280;67071;51.144;17.050;2023-02-15T23:22:53;101264.99;;;-1.44;73.52
77879;BME280;67071;51.144;17.050;2023-02-15T23:26:19;101266.25;;;-1.48;73.50
77879;BME280;67071;51.144;17.050;2023-02-15T23:29:39;101259.70;;;-1.52;73.50
77879;BME280;67071;51.144;17.050;2023-02-15T23:32:56;101259.22;;;-1.56;73.50
77879;BME280;67071;51.144;17.050;2023-02-15T23:36:31;101257.56;;;-1.61;73.56
77879;BME280;67071;51.144;17.050;2023-02-15T23:40:20;101267.37;;;-1.66;73.49
77879;BME280;67071;51.144;17.050;2023-02-15T23:47:42;101264.49;;;-1.75;73.43
77879;BME280;67071;51.144;17.050;2023-02-15T23:51:05;101269.07;;;-1.81;73.81
77879;BME280;67071;51.144;17.050;2023-02-15T23:57:28;101267.11;;;-1.95;73.74
